Terminal Aerodrome Forecast
Issued by NWS

Home | Current Version | Previous Version | Text Only | Print | Product List | Glossary Off
Versions: 1 2 3 4 5 6 7 8 9 10 11 12 13 14 15 16 17 18 19 20 21 22 23
000 FTUS41 KBOX 252321 TAFMHT TAF KMHT 252321Z 2600/2624 23005KT P6SM BKN070 FM260200 20005KT P6SM -SHRA OVC060 FM260500 27006KT P6SM FEW150 FM261300 28012G22KT P6SM BKN050=

USA.gov is the U.S. government's official web portal to all federal, state and local government web resources and services.